createdAt,value
2019-01-29T00:03:26.746Z,5.58
2019-01-29T00:05:54.151Z,6.08
2019-01-29T00:08:21.649Z,7.60
2019-01-29T00:10:49.326Z,6.30
2019-01-29T00:13:17.056Z,5.97
2019-01-29T00:15:44.494Z,5.75
2019-01-29T00:18:12.215Z,6.30
2019-01-29T00:21:00.471Z,7.00
2019-01-29T00:23:27.882Z,6.90
2019-01-29T00:25:55.290Z,6.03
2019-01-29T00:28:22.721Z,6.40
2019-01-29T00:30:50.129Z,7.55
2019-01-29T00:33:17.572Z,7.92
2019-01-29T00:35:44.971Z,7.10
2019-01-29T00:38:12.377Z,7.72
2019-01-29T00:40:39.806Z,7.65
2019-01-29T00:43:07.209Z,8.73
2019-01-29T00:45:34.647Z,8.70
2019-01-29T00:48:02.055Z,7.05
2019-01-29T00:50:29.462Z,8.88
2019-01-29T00:52:56.882Z,8.18
2019-01-29T00:55:24.321Z,6.03
2019-01-29T00:57:51.753Z,8.40
2019-01-29T01:00:22.706Z,9.20
2019-01-29T01:02:50.179Z,8.18
2019-01-29T01:05:18.070Z,7.30
2019-01-29T01:07:45.482Z,7.55
2019-01-29T01:10:14.397Z,8.90
2019-01-29T01:12:41.867Z,8.03
2019-01-29T01:15:10.347Z,9.15
2019-01-29T01:17:37.771Z,7.22
2019-01-29T01:20:06.951Z,8.90
2019-01-29T01:22:34.382Z,8.13
2019-01-29T01:25:01.800Z,7.75
2019-01-29T01:27:29.213Z,8.73
2019-01-29T01:29:56.639Z,8.45
2019-01-29T01:32:24.048Z,9.33
2019-01-29T01:34:51.476Z,9.03
2019-01-29T01:37:18.889Z,10.03
2019-01-29T01:39:46.310Z,9.10
2019-01-29T01:42:13.714Z,8.63
2019-01-29T01:44:41.136Z,7.95
2019-01-29T01:47:08.542Z,9.45
2019-01-29T01:49:35.941Z,9.28
2019-01-29T01:52:03.367Z,9.18
2019-01-29T01:54:30.774Z,9.60
2019-01-29T01:56:58.202Z,9.03
2019-01-29T01:59:25.603Z,9.95
2019-01-29T02:01:53.037Z,9.15
2019-01-29T02:04:20.445Z,9.50
2019-01-29T02:06:47.848Z,8.33
2019-01-29T02:09:15.276Z,10.60
2019-01-29T02:11:42.672Z,9.50
2019-01-29T02:14:10.174Z,9.78
2019-01-29T02:16:37.588Z,10.53
2019-01-29T02:19:04.987Z,9.60
2019-01-29T02:21:32.417Z,9.45
2019-01-29T02:23:59.826Z,10.68
2019-01-29T02:26:27.254Z,8.95
2019-01-29T02:28:54.655Z,8.55
2019-01-29T02:31:22.076Z,9.45
2019-01-29T02:33:49.505Z,9.50
2019-01-29T02:36:16.907Z,8.98
2019-01-29T02:38:44.368Z,10.10
2019-01-29T02:41:11.787Z,8.90
2019-01-29T02:43:39.194Z,10.03
2019-01-29T02:46:06.601Z,9.68
2019-01-29T02:48:34.034Z,8.00
2019-01-29T02:51:01.434Z,10.15
2019-01-29T02:53:28.865Z,8.38
2019-01-29T02:55:56.285Z,8.63
2019-01-29T02:58:23.687Z,8.63
2019-01-29T03:00:51.096Z,9.50
2019-01-29T03:03:18.503Z,9.33
2019-01-29T03:05:45.905Z,9.85
2019-01-29T03:08:13.370Z,10.13
2019-01-29T03:10:40.777Z,8.35
2019-01-29T03:13:08.192Z,9.18
2019-01-29T03:15:35.624Z,9.83
2019-01-29T03:18:03.306Z,10.28
2019-01-29T03:20:30.709Z,9.80
2019-01-29T03:22:58.135Z,9.63
2019-01-29T03:25:25.914Z,9.65
2019-01-29T03:27:53.413Z,8.68
2019-01-29T03:30:22.360Z,8.90
2019-01-29T03:32:49.887Z,8.18
2019-01-29T03:35:17.334Z,10.08
2019-01-29T03:37:44.766Z,9.20
2019-01-29T03:40:13.429Z,10.05
2019-01-29T03:42:41.056Z,10.35
2019-01-29T03:45:10.257Z,9.53
2019-01-29T03:47:37.727Z,9.10
2019-01-29T03:50:06.226Z,9.25
2019-01-29T03:52:33.696Z,9.58
2019-01-29T03:55:01.127Z,9.10
2019-01-29T03:57:28.602Z,9.50
2019-01-29T03:59:56.026Z,9.48
2019-01-29T04:02:23.505Z,9.90
2019-01-29T04:04:50.959Z,11.12
2019-01-29T04:07:18.365Z,9.15
2019-01-29T04:09:45.766Z,9.00
2019-01-29T04:12:13.185Z,9.18
2019-01-29T04:14:40.602Z,8.20
2019-01-29T04:17:08.047Z,7.97
2019-01-29T04:19:35.522Z,8.30
2019-01-29T04:22:02.928Z,8.73
2019-01-29T04:24:30.390Z,7.95
2019-01-29T04:26:57.786Z,9.00
2019-01-29T04:29:25.196Z,10.20
2019-01-29T04:31:52.626Z,9.00
2019-01-29T04:34:20.040Z,8.28
2019-01-29T04:36:47.465Z,8.43
2019-01-29T04:39:14.879Z,8.08
2019-01-29T04:41:42.306Z,7.87
2019-01-29T04:44:09.716Z,7.05
2019-01-29T04:46:37.148Z,7.92
2019-01-29T04:49:04.620Z,7.90
2019-01-29T04:51:32.018Z,7.05
2019-01-29T04:53:59.443Z,7.25
2019-01-29T04:56:26.862Z,7.40
2019-01-29T04:58:54.352Z,6.80
2019-01-29T05:01:21.793Z,7.28
2019-01-29T05:03:49.222Z,9.78
2019-01-29T05:06:16.671Z,6.80
2019-01-29T05:08:44.081Z,7.05
2019-01-29T05:11:11.486Z,7.00
2019-01-29T05:13:38.909Z,7.40
2019-01-29T05:16:06.318Z,7.40
2019-01-29T05:18:33.736Z,7.80
2019-01-29T05:21:01.177Z,6.75
2019-01-29T05:23:28.577Z,7.35
2019-01-29T05:25:55.987Z,15.08
2019-01-29T05:28:24.011Z,7.78
2019-01-29T05:30:51.410Z,12.78
2019-01-29T05:33:18.851Z,29.85
2019-01-29T05:35:46.277Z,8.78
2019-01-29T05:38:13.713Z,14.95
2019-01-29T05:40:41.108Z,9.18
2019-01-29T05:43:08.530Z,7.40
2019-01-29T05:45:35.941Z,18.85
2019-01-29T05:48:03.472Z,11.95
2019-01-29T05:50:30.888Z,14.30
2019-01-29T05:52:58.278Z,11.10
2019-01-29T05:55:25.720Z,16.25
2019-01-29T05:57:53.118Z,8.65
2019-01-29T06:00:22.164Z,13.28
2019-01-29T06:02:49.571Z,9.00
2019-01-29T06:05:17.420Z,12.80
2019-01-29T06:07:44.766Z,9.23
2019-01-29T06:10:13.564Z,7.30
2019-01-29T06:12:40.965Z,11.30
2019-01-29T06:15:10.126Z,8.25
2019-01-29T06:17:37.553Z,8.53
2019-01-29T06:20:06.505Z,10.53
2019-01-29T06:22:33.967Z,8.68
2019-01-29T06:25:01.386Z,7.83
2019-01-29T06:27:28.780Z,8.65
2019-01-29T06:29:56.210Z,7.17
2019-01-29T06:32:23.626Z,7.97
2019-01-29T06:34:51.044Z,6.90
2019-01-29T06:37:18.449Z,7.85
2019-01-29T06:39:45.884Z,7.72
2019-01-29T06:42:13.523Z,10.25
2019-01-29T06:44:40.933Z,9.23
2019-01-29T06:47:08.373Z,8.90
2019-01-29T06:49:35.774Z,8.20
2019-01-29T06:52:03.178Z,8.95
2019-01-29T06:54:34.123Z,9.60
2019-01-29T06:56:59.650Z,8.40
2019-01-29T06:59:27.090Z,8.45
2019-01-29T07:01:54.563Z,7.80
2019-01-29T07:04:21.967Z,7.75
2019-01-29T07:06:49.394Z,7.85
2019-01-29T07:09:16.789Z,8.23
2019-01-29T07:11:44.214Z,8.60
2019-01-29T07:14:11.686Z,7.85
2019-01-29T07:16:43.159Z,8.78
2019-01-29T07:19:12.214Z,10.20
2019-01-29T07:21:39.637Z,9.40
2019-01-29T07:24:07.049Z,9.30
2019-01-29T07:26:34.490Z,11.80
2019-01-29T07:29:01.899Z,12.58
2019-01-29T07:31:29.307Z,11.10
2019-01-29T07:33:56.725Z,10.63
2019-01-29T07:36:24.139Z,12.47
2019-01-29T07:38:51.641Z,12.07
2019-01-29T07:41:19.045Z,13.18
2019-01-29T07:43:46.469Z,12.23
2019-01-29T07:46:13.878Z,14.05
2019-01-29T07:48:41.306Z,12.03
2019-01-29T07:51:08.718Z,11.43
2019-01-29T07:53:36.146Z,11.05
2019-01-29T07:56:03.555Z,12.03
2019-01-29T07:58:31.033Z,12.03
2019-01-29T08:00:58.447Z,10.38
2019-01-29T08:03:25.845Z,10.00
2019-01-29T08:05:53.282Z,9.70
2019-01-29T08:08:20.689Z,10.93
2019-01-29T08:10:48.121Z,8.93
2019-01-29T08:13:15.595Z,9.98
2019-01-29T08:15:42.998Z,8.65
2019-01-29T08:18:10.429Z,8.55
2019-01-29T08:20:37.873Z,11.38
2019-01-29T08:23:05.318Z,10.23
2019-01-29T08:25:32.718Z,8.90
2019-01-29T08:28:00.126Z,8.35
2019-01-29T08:30:27.545Z,8.75
2019-01-29T08:32:54.968Z,7.72
2019-01-29T08:35:22.394Z,8.90
2019-01-29T08:37:49.795Z,7.67
2019-01-29T08:40:17.394Z,7.35
2019-01-29T08:42:44.859Z,7.42
2019-01-29T08:45:13.228Z,7.55
2019-01-29T08:47:40.649Z,8.18
2019-01-29T08:50:09.630Z,6.60
2019-01-29T08:52:37.021Z,6.80
2019-01-29T08:55:10.548Z,6.30
2019-01-29T08:57:33.969Z,6.70
2019-01-29T09:00:01.406Z,6.30
2019-01-29T09:02:29.165Z,7.45
2019-01-29T09:04:56.670Z,7.10
2019-01-29T09:07:24.040Z,6.53
2019-01-29T09:09:51.846Z,6.50
2019-01-29T09:12:19.273Z,7.20
2019-01-29T09:14:46.705Z,6.12
2019-01-29T09:17:14.183Z,6.53
2019-01-29T09:19:41.589Z,6.62
2019-01-29T09:22:09.066Z,7.28
2019-01-29T09:24:36.902Z,5.40
2019-01-29T09:27:05.661Z,6.25
2019-01-29T09:29:33.360Z,7.00
2019-01-29T09:32:00.823Z,8.25
2019-01-29T09:34:28.585Z,7.20
2019-01-29T09:36:56.068Z,6.70
2019-01-29T09:39:23.487Z,7.47
2019-01-29T09:41:51.218Z,7.33
2019-01-29T09:44:18.668Z,7.90
2019-01-29T09:46:46.483Z,6.87
2019-01-29T09:49:13.934Z,7.25
2019-01-29T09:51:41.454Z,7.10
2019-01-29T09:57:16.302Z,8.13
2019-01-29T09:59:44.018Z,8.00
2019-01-29T10:02:11.500Z,9.08
2019-01-29T10:04:38.918Z,8.38
2019-01-29T10:07:06.595Z,6.97
2019-01-29T10:09:34.023Z,9.20
2019-01-29T10:12:01.583Z,8.40
2019-01-29T10:14:28.994Z,8.43
2019-01-29T10:16:56.528Z,8.85
2019-01-29T10:19:23.929Z,8.60
2019-01-29T10:21:58.732Z,10.03
2019-01-29T10:24:26.174Z,9.40
2019-01-29T10:26:53.638Z,8.95
2019-01-29T10:29:21.294Z,10.80
2019-01-29T10:31:49.863Z,10.10
2019-01-29T10:34:17.667Z,9.98
2019-01-29T10:36:45.747Z,9.90
2019-01-29T10:39:14.128Z,9.65
2019-01-29T10:41:43.217Z,10.70
2019-01-29T10:44:11.719Z,9.85
2019-01-29T10:46:40.191Z,10.05
2019-01-29T10:49:08.363Z,9.68
2019-01-29T10:51:35.988Z,10.10
2019-01-29T10:54:04.004Z,9.70
2019-01-29T10:56:32.081Z,9.58
2019-01-29T10:58:59.614Z,10.40
2019-01-29T11:01:27.355Z,9.90
2019-01-29T11:03:55.409Z,10.20
2019-01-29T11:06:23.307Z,9.23
2019-01-29T11:08:52.249Z,9.55
2019-01-29T11:12:16.090Z,9.30
2019-01-29T11:17:46.787Z,9.88
2019-01-29T11:22:41.666Z,9.63
2019-01-29T11:25:30.331Z,10.10
2019-01-29T11:27:57.921Z,10.10
2019-01-29T11:33:32.662Z,10.75
2019-01-29T11:36:00.492Z,12.95
2019-01-29T11:38:28.170Z,12.25
2019-01-29T11:40:56.038Z,13.20
2019-01-29T11:43:23.539Z,11.83
2019-01-29T11:45:51.213Z,11.97
2019-01-29T11:48:18.665Z,13.50
2019-01-29T11:50:46.580Z,16.90
2019-01-29T11:53:14.038Z,11.97
2019-01-29T11:55:41.802Z,13.45
2019-01-29T11:58:09.422Z,13.03
2019-01-29T12:00:57.598Z,12.30
2019-01-29T12:03:25.102Z,11.45
2019-01-29T12:05:52.518Z,12.47
2019-01-29T12:08:20.032Z,12.33
2019-01-29T12:10:47.475Z,10.82
2019-01-29T12:13:14.912Z,13.65
2019-01-29T12:15:42.389Z,12.30
2019-01-29T12:18:09.857Z,12.37
2019-01-29T12:20:37.277Z,11.70
2019-01-29T12:23:04.751Z,11.95
2019-01-29T12:25:32.250Z,12.50
2019-01-29T12:27:59.687Z,12.65
2019-01-29T12:30:30.290Z,14.43
2019-01-29T12:32:58.564Z,14.28
2019-01-29T12:35:26.054Z,12.15
2019-01-29T12:37:53.480Z,12.98
2019-01-29T12:40:20.903Z,12.90
2019-01-29T12:42:48.387Z,14.35
2019-01-29T12:45:16.912Z,14.60
2019-01-29T12:47:44.316Z,15.05
2019-01-29T12:50:15.938Z,15.15
2019-01-29T12:52:45.015Z,14.90
2019-01-29T12:55:12.514Z,14.90
2019-01-29T12:57:39.930Z,14.25
2019-01-29T13:00:12.131Z,12.43
2019-01-29T13:02:39.578Z,15.85
2019-01-29T13:05:08.688Z,13.65
2019-01-29T13:07:36.064Z,14.07
2019-01-29T13:10:04.570Z,13.83
2019-01-29T13:12:31.978Z,13.45
2019-01-29T13:14:59.408Z,13.90
2019-01-29T13:17:26.855Z,13.98
2019-01-29T13:19:54.278Z,13.43
2019-01-29T13:22:21.702Z,14.75
2019-01-29T13:24:49.121Z,15.40
2019-01-29T13:27:16.538Z,16.95
2019-01-29T13:29:44.001Z,17.10
2019-01-29T13:32:11.490Z,16.70
2019-01-29T13:34:38.938Z,17.20
2019-01-29T13:37:06.406Z,16.17
2019-01-29T13:39:33.817Z,17.05
2019-01-29T13:42:01.227Z,16.60
2019-01-29T13:44:28.681Z,19.70
2019-01-29T13:46:56.101Z,16.23
2019-01-29T13:49:23.503Z,17.27
2019-01-29T13:51:50.958Z,15.60
2019-01-29T13:54:18.371Z,16.30
2019-01-29T13:56:45.774Z,17.07
2019-01-29T13:59:13.241Z,18.27
2019-01-29T14:01:40.657Z,18.73
2019-01-29T14:04:08.062Z,18.27
2019-01-29T14:06:35.503Z,17.32
2019-01-29T14:09:03.202Z,18.80
2019-01-29T14:11:30.620Z,19.10
2019-01-29T14:13:58.043Z,17.05
2019-01-29T14:16:25.485Z,17.77
2019-01-29T14:18:52.978Z,17.85
2019-01-29T14:21:20.422Z,17.20
2019-01-29T14:23:47.839Z,15.63
2019-01-29T14:26:15.258Z,14.68
2019-01-29T14:28:42.720Z,17.20
2019-01-29T14:31:10.131Z,16.55
2019-01-29T14:33:37.568Z,18.62
2019-01-29T14:36:05.042Z,16.00
2019-01-29T14:38:34.011Z,14.93
2019-01-29T14:41:01.447Z,14.78
2019-01-29T14:43:30.399Z,15.10
2019-01-29T14:45:58.557Z,15.60
2019-01-29T14:48:26.157Z,16.02
2019-01-29T14:50:53.574Z,16.02
2019-01-29T14:53:21.287Z,13.60
2019-01-29T14:55:49.090Z,14.30
2019-01-29T14:58:16.438Z,14.30
2019-01-29T15:00:44.031Z,15.93
2019-01-29T15:03:11.550Z,13.30
2019-01-29T15:05:38.968Z,13.28
2019-01-29T15:08:08.678Z,14.20
2019-01-29T15:10:36.492Z,14.03
2019-01-29T15:13:04.316Z,13.20
2019-01-29T15:15:34.652Z,13.48
2019-01-29T15:18:07.183Z,12.88
2019-01-29T15:20:34.598Z,11.80
2019-01-29T15:23:02.074Z,13.72
2019-01-29T15:25:29.505Z,14.70
2019-01-29T15:27:56.952Z,13.25
2019-01-29T15:30:25.747Z,11.90
2019-01-29T15:32:53.239Z,12.50
2019-01-29T15:35:20.678Z,12.73
2019-01-29T15:37:48.097Z,13.93
2019-01-29T15:40:18.788Z,13.75
2019-01-29T15:42:46.358Z,13.28
2019-01-29T15:45:16.219Z,12.70
2019-01-29T15:47:46.451Z,13.65
2019-01-29T15:50:16.852Z,12.68
2019-01-29T15:52:48.676Z,13.43
2019-01-29T15:55:14.635Z,16.60
2019-01-29T15:57:42.238Z,16.12
2019-01-29T16:00:14.435Z,15.18
2019-01-29T16:02:41.867Z,14.55
2019-01-29T16:05:10.818Z,16.60
2019-01-29T16:07:38.254Z,16.02
2019-01-29T16:10:10.165Z,20.35
2019-01-29T16:12:37.630Z,16.30
2019-01-29T16:15:06.588Z,15.15
2019-01-29T16:17:34.002Z,15.53
2019-01-29T16:20:01.513Z,14.58
2019-01-29T16:22:28.975Z,13.85
2019-01-29T16:24:57.634Z,14.58
2019-01-29T16:27:25.010Z,15.15
2019-01-29T16:29:53.501Z,15.80
2019-01-29T16:32:21.017Z,16.50
2019-01-29T16:34:48.472Z,16.25
2019-01-29T16:37:15.858Z,15.32
2019-01-29T16:39:43.283Z,15.30
2019-01-29T16:42:12.095Z,15.18
2019-01-29T16:44:39.553Z,13.78
2019-01-29T16:47:09.300Z,13.65
2019-01-29T16:49:40.056Z,14.35
2019-01-29T16:52:07.846Z,14.75
2019-01-29T16:54:37.243Z,13.25
2019-01-29T16:57:06.467Z,14.63
2019-01-29T16:59:36.465Z,14.25
2019-01-29T17:02:05.505Z,15.43
2019-01-29T17:04:33.265Z,14.90
2019-01-29T17:07:00.691Z,14.98
2019-01-29T17:09:29.462Z,14.30
2019-01-29T17:11:58.462Z,13.05
2019-01-29T17:14:27.344Z,14.05
2019-01-29T17:16:56.725Z,15.68
2019-01-29T17:19:24.451Z,15.15
2019-01-29T17:21:54.616Z,15.23
2019-01-29T17:24:24.000Z,15.20
2019-01-29T17:26:53.068Z,15.48
2019-01-29T17:29:21.012Z,14.13
2019-01-29T17:31:50.318Z,14.00
2019-01-29T17:34:20.245Z,14.23
2019-01-29T17:36:49.005Z,12.23
2019-01-29T17:39:17.803Z,14.83
2019-01-29T17:41:46.256Z,14.10
2019-01-29T17:44:16.525Z,14.18
2019-01-29T17:46:46.838Z,15.28
2019-01-29T17:49:17.815Z,15.18
2019-01-29T17:51:46.740Z,11.80
2019-01-29T17:54:15.558Z,13.65
2019-01-29T17:56:44.322Z,13.18
2019-01-29T17:59:13.419Z,11.70
2019-01-29T18:01:42.419Z,11.70
2019-01-29T18:04:13.896Z,12.65
2019-01-29T18:06:43.300Z,11.97
2019-01-29T18:09:11.519Z,11.70
2019-01-29T18:11:39.869Z,12.40
2019-01-29T18:14:08.808Z,11.97
2019-01-29T18:16:37.270Z,13.50
2019-01-29T18:19:07.123Z,11.93
2019-01-29T18:21:35.421Z,12.60
2019-01-29T18:26:57.552Z,11.85
2019-01-29T18:29:25.891Z,11.57
2019-01-29T18:35:02.779Z,11.48
2019-01-29T18:37:31.345Z,10.98
2019-01-29T18:39:59.221Z,11.78
2019-01-29T18:42:27.036Z,10.38
2019-01-29T18:44:55.231Z,9.88
2019-01-29T18:47:23.544Z,10.53
2019-01-29T18:52:59.836Z,9.93
2019-01-29T18:55:27.373Z,11.88
2019-01-29T18:57:54.894Z,10.58
2019-01-29T19:00:24.769Z,10.23
2019-01-29T19:02:53.020Z,9.95
2019-01-29T19:05:21.398Z,9.40
2019-01-29T19:07:48.878Z,8.93
2019-01-29T19:10:17.386Z,9.75
2019-01-29T19:12:45.456Z,10.25
2019-01-29T19:15:14.568Z,10.13
2019-01-29T19:17:41.974Z,10.00
2019-01-29T19:20:11.156Z,10.60
2019-01-29T19:22:38.594Z,10.23
2019-01-29T19:25:07.673Z,9.78
2019-01-29T19:27:35.078Z,8.93
2019-01-29T19:30:02.537Z,10.23
2019-01-29T19:32:29.998Z,10.40
2019-01-29T19:34:57.403Z,9.30
2019-01-29T19:37:24.830Z,9.75
2019-01-29T19:39:52.237Z,10.78
2019-01-29T19:42:27.306Z,10.23
2019-01-29T19:44:48.746Z,11.18
2019-01-29T19:47:16.144Z,9.53
2019-01-29T19:49:43.613Z,11.05
2019-01-29T19:52:11.139Z,10.68
2019-01-29T19:54:38.715Z,9.08
2019-01-29T19:57:06.268Z,9.50
2019-01-29T19:59:33.675Z,9.85
2019-01-29T20:02:01.679Z,10.65
2019-01-29T20:04:30.155Z,9.00
2019-01-29T20:06:57.759Z,9.40
2019-01-29T20:09:26.519Z,9.50
2019-01-29T20:11:58.777Z,9.98
2019-01-29T20:14:33.029Z,9.40
2019-01-29T20:17:02.600Z,9.25
2019-01-29T20:19:35.528Z,9.90
2019-01-29T20:22:03.254Z,10.63
2019-01-29T20:24:32.628Z,9.38
2019-01-29T20:27:04.903Z,8.98
2019-01-29T20:29:34.234Z,10.98
2019-01-29T20:32:05.331Z,10.23
2019-01-29T20:34:34.790Z,9.40
2019-01-29T20:37:02.977Z,9.50
2019-01-29T20:39:34.846Z,10.05
2019-01-29T20:42:05.303Z,10.03
2019-01-29T20:44:37.805Z,9.38
2019-01-29T20:47:05.260Z,9.18
2019-01-29T20:49:34.885Z,11.00
2019-01-29T20:52:05.166Z,10.75
2019-01-29T20:54:32.768Z,11.25
2019-01-29T20:57:01.603Z,11.08
2019-01-29T20:59:30.668Z,10.20
2019-01-29T21:01:58.401Z,11.05
2019-01-29T21:04:27.413Z,10.90
2019-01-29T21:06:57.825Z,11.25
2019-01-29T21:09:25.693Z,10.53
2019-01-29T21:11:54.984Z,9.55
2019-01-29T21:14:22.475Z,9.58
2019-01-29T21:16:50.618Z,9.75
2019-01-29T21:19:19.270Z,10.95
2019-01-29T21:21:48.882Z,12.03
2019-01-29T21:24:17.352Z,10.13
2019-01-29T21:26:46.683Z,10.80
2019-01-29T21:29:15.961Z,11.12
2019-01-29T21:31:45.773Z,10.63
2019-01-29T21:34:14.726Z,11.15
2019-01-29T21:36:45.285Z,11.40
2019-01-29T21:39:14.383Z,11.15
2019-01-29T21:41:42.191Z,10.03
2019-01-29T21:44:12.416Z,11.15
2019-01-29T21:46:40.524Z,11.38
2019-01-29T21:49:08.724Z,10.85
2019-01-29T21:51:37.093Z,10.93
2019-01-29T21:54:06.142Z,10.88
2019-01-29T21:56:35.307Z,10.60
2019-01-29T21:59:12.898Z,10.90
2019-01-29T22:01:33.901Z,11.00
2019-01-29T22:04:03.408Z,11.25
2019-01-29T22:06:32.506Z,10.72
2019-01-29T22:09:00.842Z,9.68
2019-01-29T22:11:29.271Z,10.45
2019-01-29T22:13:57.629Z,10.55
2019-01-29T22:16:25.470Z,10.23
2019-01-29T22:18:53.477Z,10.58
2019-01-29T22:21:21.991Z,10.60
2019-01-29T22:23:51.369Z,10.65
2019-01-29T22:26:21.238Z,11.83
2019-01-29T22:28:50.478Z,10.30
2019-01-29T22:31:19.364Z,10.72
2019-01-29T22:33:47.726Z,12.10
2019-01-29T22:36:15.599Z,9.75
2019-01-29T22:38:45.122Z,10.53
2019-01-29T22:41:14.133Z,16.15
2019-01-29T22:43:42.022Z,10.68
2019-01-29T22:46:10.285Z,10.32
2019-01-29T22:48:38.063Z,11.05
2019-01-29T22:51:05.786Z,10.72
2019-01-29T22:53:34.089Z,10.40
2019-01-29T22:56:04.150Z,10.48
2019-01-29T22:58:34.001Z,10.20
2019-01-29T23:01:03.539Z,10.40
2019-01-29T23:03:34.219Z,10.78
2019-01-29T23:06:03.568Z,9.70
2019-01-29T23:08:31.240Z,9.85
2019-01-29T23:11:01.947Z,10.78
2019-01-29T23:13:29.525Z,10.03
2019-01-29T23:15:56.969Z,9.90
2019-01-29T23:18:24.387Z,9.50
2019-01-29T23:20:52.530Z,10.13
2019-01-29T23:23:22.187Z,9.43
2019-01-29T23:25:49.597Z,9.35
2019-01-29T23:28:17.235Z,8.45
2019-01-29T23:30:45.433Z,8.60
2019-01-29T23:33:13.036Z,9.93
2019-01-29T23:35:40.472Z,11.73
2019-01-29T23:38:09.359Z,9.93
2019-01-29T23:40:38.540Z,8.05
2019-01-29T23:43:06.146Z,8.38
2019-01-29T23:45:34.317Z,8.63
2019-01-29T23:48:02.656Z,7.95
2019-01-29T23:50:31.446Z,8.33
2019-01-29T23:53:00.242Z,7.60
2019-01-29T23:55:28.057Z,8.55
2019-01-29T23:57:57.589Z,8.40
